sensor_id;sensor_type;location;lat;lon;timestamp;P1;durP1;ratioP1;P2;durP2;ratioP2
42066;SDS011;27734;47.028;28.820;2022-11-24T00:01:50;21.97;;;12.73;;
42066;SDS011;27734;47.028;28.820;2022-11-24T00:04:21;22.30;;;12.15;;
42066;SDS011;27734;47.028;28.820;2022-11-24T00:06:52;21.80;;;11.83;;
42066;SDS011;27734;47.028;28.820;2022-11-24T00:09:24;22.00;;;12.43;;
42066;SDS011;27734;47.028;28.820;2022-11-24T00:11:55;20.53;;;12.17;;
42066;SDS011;27734;47.028;28.820;2022-11-24T00:14:28;23.03;;;12.67;;
42066;SDS011;27734;47.028;28.820;2022-11-24T00:16:59;22.55;;;12.10;;
42066;SDS011;27734;47.028;28.820;2022-11-24T00:19:30;23.00;;;13.33;;
42066;SDS011;27734;47.028;28.820;2022-11-24T00:22:02;21.30;;;12.23;;
42066;SDS011;27734;47.028;28.820;2022-11-24T00:24:33;21.90;;;12.60;;
42066;SDS011;27734;47.028;28.820;2022-11-24T00:27:04;22.37;;;12.70;;
42066;SDS011;27734;47.028;28.820;2022-11-24T00:29:35;22.90;;;12.13;;
42066;SDS011;27734;47.028;28.820;2022-11-24T00:32:07;20.83;;;11.33;;
42066;SDS011;27734;47.028;28.820;2022-11-24T00:34:38;20.43;;;11.53;;
42066;SDS011;27734;47.028;28.820;2022-11-24T00:37:09;19.43;;;10.47;;
42066;SDS011;27734;47.028;28.820;2022-11-24T00:39:40;19.60;;;10.67;;
42066;SDS011;27734;47.028;28.820;2022-11-24T00:42:11;18.60;;;10.40;;
42066;SDS011;27734;47.028;28.820;2022-11-24T00:44:43;19.83;;;10.33;;
42066;SDS011;27734;47.028;28.820;2022-11-24T00:47:14;18.03;;;9.77;;
42066;SDS011;27734;47.028;28.820;2022-11-24T00:49:45;16.57;;;9.30;;
42066;SDS011;27734;47.028;28.820;2022-11-24T00:52:16;17.13;;;9.30;;
42066;SDS011;27734;47.028;28.820;2022-11-24T00:54:47;16.63;;;8.73;;
42066;SDS011;27734;47.028;28.820;2022-11-24T00:57:18;17.43;;;9.10;;
42066;SDS011;27734;47.028;28.820;2022-11-24T00:59:49;20.10;;;9.73;;
42066;SDS011;27734;47.028;28.820;2022-11-24T01:02:20;18.30;;;9.00;;
42066;SDS011;27734;47.028;28.820;2022-11-24T01:04:51;16.13;;;8.97;;
42066;SDS011;27734;47.028;28.820;2022-11-24T01:07:22;16.00;;;8.73;;
42066;SDS011;27734;47.028;28.820;2022-11-24T01:09:54;16.73;;;8.83;;
42066;SDS011;27734;47.028;28.820;2022-11-24T01:12:25;17.17;;;8.93;;
42066;SDS011;27734;47.028;28.820;2022-11-24T01:14:56;16.20;;;8.50;;
42066;SDS011;27734;47.028;28.820;2022-11-24T01:17:27;16.07;;;8.87;;
42066;SDS011;27734;47.028;28.820;2022-11-24T01:19:59;15.00;;;8.70;;
42066;SDS011;27734;47.028;28.820;2022-11-24T01:22:31;16.20;;;8.83;;
42066;SDS011;27734;47.028;28.820;2022-11-24T01:25:03;14.03;;;7.97;;
42066;SDS011;27734;47.028;28.820;2022-11-24T01:27:35;14.10;;;8.17;;
42066;SDS011;27734;47.028;28.820;2022-11-24T01:30:07;16.10;;;8.43;;
42066;SDS011;27734;47.028;28.820;2022-11-24T01:32:39;17.05;;;8.78;;
42066;SDS011;27734;47.028;28.820;2022-11-24T01:35:10;15.53;;;8.47;;
42066;SDS011;27734;47.028;28.820;2022-11-24T01:37:42;15.00;;;7.80;;
42066;SDS011;27734;47.028;28.820;2022-11-24T01:40:13;16.73;;;8.43;;
42066;SDS011;27734;47.028;28.820;2022-11-24T01:42:47;15.27;;;8.37;;
42066;SDS011;27734;47.028;28.820;2022-11-24T01:45:33;16.60;;;8.90;;
42066;SDS011;27734;47.028;28.820;2022-11-24T01:48:10;15.90;;;8.40;;
42066;SDS011;27734;47.028;28.820;2022-11-24T01:50:44;17.27;;;9.40;;
42066;SDS011;27734;47.028;28.820;2022-11-24T01:53:22;19.27;;;10.00;;
42066;SDS011;27734;47.028;28.820;2022-11-24T01:55:54;16.97;;;9.67;;
42066;SDS011;27734;47.028;28.820;2022-11-24T01:58:26;17.13;;;9.20;;
42066;SDS011;27734;47.028;28.820;2022-11-24T02:01:00;17.87;;;9.60;;
42066;SDS011;27734;47.028;28.820;2022-11-24T02:03:33;19.40;;;9.50;;
42066;SDS011;27734;47.028;28.820;2022-11-24T02:06:08;18.30;;;10.23;;
42066;SDS011;27734;47.028;28.820;2022-11-24T02:08:44;17.73;;;10.10;;
42066;SDS011;27734;47.028;28.820;2022-11-24T02:11:19;19.33;;;10.00;;
42066;SDS011;27734;47.028;28.820;2022-11-24T02:13:54;17.40;;;9.40;;
42066;SDS011;27734;47.028;28.820;2022-11-24T02:16:27;19.87;;;9.73;;
42066;SDS011;27734;47.028;28.820;2022-11-24T02:19:00;17.43;;;9.60;;
42066;SDS011;27734;47.028;28.820;2022-11-24T02:21:32;18.40;;;10.20;;
42066;SDS011;27734;47.028;28.820;2022-11-24T02:24:05;18.83;;;10.47;;
42066;SDS011;27734;47.028;28.820;2022-11-24T02:26:45;20.37;;;11.00;;
42066;SDS011;27734;47.028;28.820;2022-11-24T02:29:19;17.97;;;10.20;;
42066;SDS011;27734;47.028;28.820;2022-11-24T02:31:50;20.23;;;11.17;;
42066;SDS011;27734;47.028;28.820;2022-11-24T02:34:26;21.77;;;10.53;;
42066;SDS011;27734;47.028;28.820;2022-11-24T02:36:57;20.40;;;10.73;;
42066;SDS011;27734;47.028;28.820;2022-11-24T02:39:28;20.63;;;10.83;;
42066;SDS011;27734;47.028;28.820;2022-11-24T02:42:00;21.27;;;10.87;;
42066;SDS011;27734;47.028;28.820;2022-11-24T02:44:34;19.80;;;10.50;;
42066;SDS011;27734;47.028;28.820;2022-11-24T02:47:10;20.93;;;10.37;;
42066;SDS011;27734;47.028;28.820;2022-11-24T02:49:42;18.90;;;10.63;;
42066;SDS011;27734;47.028;28.820;2022-11-24T02:52:13;21.03;;;10.90;;
42066;SDS011;27734;47.028;28.820;2022-11-24T02:54:44;21.87;;;11.30;;
42066;SDS011;27734;47.028;28.820;2022-11-24T02:57:15;20.47;;;11.30;;
42066;SDS011;27734;47.028;28.820;2022-11-24T02:59:47;20.50;;;11.57;;
42066;SDS011;27734;47.028;28.820;2022-11-24T03:02:18;22.53;;;11.30;;
42066;SDS011;27734;47.028;28.820;2022-11-24T03:04:49;22.67;;;11.77;;
42066;SDS011;27734;47.028;28.820;2022-11-24T03:07:20;21.97;;;12.27;;
42066;SDS011;27734;47.028;28.820;2022-11-24T03:09:51;23.60;;;12.47;;
42066;SDS011;27734;47.028;28.820;2022-11-24T03:12:22;24.40;;;13.60;;
42066;SDS011;27734;47.028;28.820;2022-11-24T03:14:53;24.27;;;12.60;;
42066;SDS011;27734;47.028;28.820;2022-11-24T03:17:24;22.47;;;12.20;;
42066;SDS011;27734;47.028;28.820;2022-11-24T03:19:56;23.30;;;13.67;;
42066;SDS011;27734;47.028;28.820;2022-11-24T03:22:29;25.43;;;13.47;;
42066;SDS011;27734;47.028;28.820;2022-11-24T03:25:00;26.73;;;13.17;;
42066;SDS011;27734;47.028;28.820;2022-11-24T03:27:31;24.33;;;13.10;;
42066;SDS011;27734;47.028;28.820;2022-11-24T03:30:03;23.05;;;13.20;;
42066;SDS011;27734;47.028;28.820;2022-11-24T03:32:35;24.33;;;13.37;;
42066;SDS011;27734;47.028;28.820;2022-11-24T03:35:07;23.40;;;13.43;;
42066;SDS011;27734;47.028;28.820;2022-11-24T03:37:39;24.07;;;13.27;;
42066;SDS011;27734;47.028;28.820;2022-11-24T03:40:10;24.90;;;13.47;;
42066;SDS011;27734;47.028;28.820;2022-11-24T03:42:42;24.30;;;14.47;;
42066;SDS011;27734;47.028;28.820;2022-11-24T03:45:13;24.97;;;14.17;;
42066;SDS011;27734;47.028;28.820;2022-11-24T03:47:44;25.17;;;13.67;;
42066;SDS011;27734;47.028;28.820;2022-11-24T03:50:20;24.47;;;13.37;;
42066;SDS011;27734;47.028;28.820;2022-11-24T03:52:51;27.77;;;14.33;;
42066;SDS011;27734;47.028;28.820;2022-11-24T03:55:22;30.40;;;15.00;;
42066;SDS011;27734;47.028;28.820;2022-11-24T03:57:53;25.03;;;13.70;;
42066;SDS011;27734;47.028;28.820;2022-11-24T04:00:24;25.90;;;14.17;;
42066;SDS011;27734;47.028;28.820;2022-11-24T04:02:56;26.07;;;14.33;;
42066;SDS011;27734;47.028;28.820;2022-11-24T04:05:27;27.70;;;14.43;;
42066;SDS011;27734;47.028;28.820;2022-11-24T04:08:00;26.20;;;14.05;;
42066;SDS011;27734;47.028;28.820;2022-11-24T04:10:32;28.67;;;14.67;;
42066;SDS011;27734;47.028;28.820;2022-11-24T04:13:09;28.00;;;14.10;;
42066;SDS011;27734;47.028;28.820;2022-11-24T04:15:42;26.63;;;13.60;;
42066;SDS011;27734;47.028;28.820;2022-11-24T04:18:13;29.23;;;14.90;;
42066;SDS011;27734;47.028;28.820;2022-11-24T04:20:45;28.90;;;14.60;;
42066;SDS011;27734;47.028;28.820;2022-11-24T04:23:17;26.80;;;13.67;;
42066;SDS011;27734;47.028;28.820;2022-11-24T04:25:48;28.87;;;14.93;;
42066;SDS011;27734;47.028;28.820;2022-11-24T04:28:19;25.03;;;13.90;;
42066;SDS011;27734;47.028;28.820;2022-11-24T04:30:50;28.43;;;14.97;;
42066;SDS011;27734;47.028;28.820;2022-11-24T04:33:21;28.53;;;15.00;;
42066;SDS011;27734;47.028;28.820;2022-11-24T04:35:53;28.97;;;15.50;;
42066;SDS011;27734;47.028;28.820;2022-11-24T04:38:24;28.07;;;14.33;;
42066;SDS011;27734;47.028;28.820;2022-11-24T04:40:55;27.70;;;13.70;;
42066;SDS011;27734;47.028;28.820;2022-11-24T04:43:31;29.73;;;15.37;;
42066;SDS011;27734;47.028;28.820;2022-11-24T04:46:02;25.77;;;13.93;;
42066;SDS011;27734;47.028;28.820;2022-11-24T04:48:33;27.63;;;14.23;;
42066;SDS011;27734;47.028;28.820;2022-11-24T04:51:05;27.17;;;14.70;;
42066;SDS011;27734;47.028;28.820;2022-11-24T04:53:37;25.63;;;14.10;;
42066;SDS011;27734;47.028;28.820;2022-11-24T04:56:08;29.97;;;14.03;;
42066;SDS011;27734;47.028;28.820;2022-11-24T04:58:39;27.00;;;13.70;;
42066;SDS011;27734;47.028;28.820;2022-11-24T05:01:11;28.23;;;13.87;;
42066;SDS011;27734;47.028;28.820;2022-11-24T05:03:42;27.50;;;13.70;;
42066;SDS011;27734;47.028;28.820;2022-11-24T05:06:13;28.10;;;14.37;;
42066;SDS011;27734;47.028;28.820;2022-11-24T05:08:46;27.67;;;13.93;;
42066;SDS011;27734;47.028;28.820;2022-11-24T05:13:48;26.90;;;13.67;;
42066;SDS011;27734;47.028;28.820;2022-11-24T05:16:20;27.27;;;14.23;;
42066;SDS011;27734;47.028;28.820;2022-11-24T05:18:51;28.13;;;14.67;;
42066;SDS011;27734;47.028;28.820;2022-11-24T05:21:23;27.57;;;13.90;;
42066;SDS011;27734;47.028;28.820;2022-11-24T05:23:54;28.73;;;14.33;;
42066;SDS011;27734;47.028;28.820;2022-11-24T05:26:25;29.93;;;14.37;;
42066;SDS011;27734;47.028;28.820;2022-11-24T05:28:56;28.13;;;15.13;;
42066;SDS011;27734;47.028;28.820;2022-11-24T05:31:27;26.53;;;13.90;;
42066;SDS011;27734;47.028;28.820;2022-11-24T05:33:58;27.67;;;14.50;;
42066;SDS011;27734;47.028;28.820;2022-11-24T05:36:30;27.67;;;13.83;;
42066;SDS011;27734;47.028;28.820;2022-11-24T05:39:19;27.00;;;13.83;;
42066;SDS011;27734;47.028;28.820;2022-11-24T05:41:50;27.37;;;14.17;;
42066;SDS011;27734;47.028;28.820;2022-11-24T05:44:21;27.33;;;14.50;;
42066;SDS011;27734;47.028;28.820;2022-11-24T05:46:52;27.90;;;14.40;;
42066;SDS011;27734;47.028;28.820;2022-11-24T05:49:23;30.93;;;15.80;;
42066;SDS011;27734;47.028;28.820;2022-11-24T05:51:55;29.53;;;16.00;;
42066;SDS011;27734;47.028;28.820;2022-11-24T05:54:26;30.53;;;14.80;;
42066;SDS011;27734;47.028;28.820;2022-11-24T05:56:57;27.17;;;14.40;;
42066;SDS011;27734;47.028;28.820;2022-11-24T05:59:28;32.17;;;15.70;;
42066;SDS011;27734;47.028;28.820;2022-11-24T06:01:59;28.07;;;14.20;;
42066;SDS011;27734;47.028;28.820;2022-11-24T06:04:31;28.70;;;14.50;;
42066;SDS011;27734;47.028;28.820;2022-11-24T06:07:02;28.17;;;13.73;;
42066;SDS011;27734;47.028;28.820;2022-11-24T06:09:36;28.23;;;14.10;;
42066;SDS011;27734;47.028;28.820;2022-11-24T06:12:09;30.52;;;15.50;;
42066;SDS011;27734;47.028;28.820;2022-11-24T06:14:41;28.63;;;14.00;;
42066;SDS011;27734;47.028;28.820;2022-11-24T06:17:12;28.53;;;13.67;;
42066;SDS011;27734;47.028;28.820;2022-11-24T06:19:44;26.83;;;13.30;;
42066;SDS011;27734;47.028;28.820;2022-11-24T06:22:17;29.60;;;14.50;;
42066;SDS011;27734;47.028;28.820;2022-11-24T06:24:48;28.87;;;13.73;;
42066;SDS011;27734;47.028;28.820;2022-11-24T06:27:20;29.13;;;14.67;;
42066;SDS011;27734;47.028;28.820;2022-11-24T06:29:51;30.27;;;15.13;;
42066;SDS011;27734;47.028;28.820;2022-11-24T06:32:24;28.40;;;14.60;;
42066;SDS011;27734;47.028;28.820;2022-11-24T06:34:57;30.93;;;15.53;;
42066;SDS011;27734;47.028;28.820;2022-11-24T06:37:28;29.60;;;14.77;;
42066;SDS011;27734;47.028;28.820;2022-11-24T06:39:59;31.80;;;15.60;;
42066;SDS011;27734;47.028;28.820;2022-11-24T06:42:30;28.07;;;14.73;;
42066;SDS011;27734;47.028;28.820;2022-11-24T06:45:01;28.80;;;13.43;;
42066;SDS011;27734;47.028;28.820;2022-11-24T06:47:33;31.43;;;15.20;;
42066;SDS011;27734;47.028;28.820;2022-11-24T06:50:06;32.80;;;15.67;;
42066;SDS011;27734;47.028;28.820;2022-11-24T06:52:40;31.50;;;15.40;;
42066;SDS011;27734;47.028;28.820;2022-11-24T06:55:11;37.03;;;18.50;;
42066;SDS011;27734;47.028;28.820;2022-11-24T06:57:43;34.50;;;16.80;;
42066;SDS011;27734;47.028;28.820;2022-11-24T07:00:15;35.90;;;18.47;;
42066;SDS011;27734;47.028;28.820;2022-11-24T07:02:48;33.97;;;17.13;;
42066;SDS011;27734;47.028;28.820;2022-11-24T07:08:01;31.83;;;16.90;;
42066;SDS011;27734;47.028;28.820;2022-11-24T07:10:32;35.33;;;17.20;;
42066;SDS011;27734;47.028;28.820;2022-11-24T07:13:03;32.50;;;17.43;;
42066;SDS011;27734;47.028;28.820;2022-11-24T07:15:37;30.53;;;15.43;;
42066;SDS011;27734;47.028;28.820;2022-11-24T07:18:08;28.77;;;13.87;;
42066;SDS011;27734;47.028;28.820;2022-11-24T07:20:39;24.43;;;12.20;;
42066;SDS011;27734;47.028;28.820;2022-11-24T07:23:10;25.23;;;11.93;;
42066;SDS011;27734;47.028;28.820;2022-11-24T07:25:42;25.03;;;11.80;;
42066;SDS011;27734;47.028;28.820;2022-11-24T07:28:13;25.43;;;12.03;;
42066;SDS011;27734;47.028;28.820;2022-11-24T07:30:46;23.23;;;12.10;;
42066;SDS011;27734;47.028;28.820;2022-11-24T07:33:17;24.67;;;12.43;;
42066;SDS011;27734;47.028;28.820;2022-11-24T07:35:52;26.07;;;12.60;;
42066;SDS011;27734;47.028;28.820;2022-11-24T07:38:27;26.50;;;12.70;;
42066;SDS011;27734;47.028;28.820;2022-11-24T07:41:00;26.67;;;13.33;;
42066;SDS011;27734;47.028;28.820;2022-11-24T07:43:34;26.20;;;12.27;;
42066;SDS011;27734;47.028;28.820;2022-11-24T07:46:09;24.35;;;11.73;;
42066;SDS011;27734;47.028;28.820;2022-11-24T07:48:41;22.20;;;10.70;;
42066;SDS011;27734;47.028;28.820;2022-11-24T07:51:13;25.10;;;10.17;;
42066;SDS011;27734;47.028;28.820;2022-11-24T07:53:44;21.80;;;9.00;;
42066;SDS011;27734;47.028;28.820;2022-11-24T07:56:21;19.87;;;9.03;;
42066;SDS011;27734;47.028;28.820;2022-11-24T07:58:52;22.10;;;9.90;;
42066;SDS011;27734;47.028;28.820;2022-11-24T08:01:25;23.43;;;10.63;;
42066;SDS011;27734;47.028;28.820;2022-11-24T08:03:56;22.13;;;9.67;;
42066;SDS011;27734;47.028;28.820;2022-11-24T08:06:29;22.87;;;9.63;;
42066;SDS011;27734;47.028;28.820;2022-11-24T08:09:01;24.90;;;10.20;;
42066;SDS011;27734;47.028;28.820;2022-11-24T08:11:32;24.03;;;10.67;;
42066;SDS011;27734;47.028;28.820;2022-11-24T08:14:06;25.27;;;11.77;;
42066;SDS011;27734;47.028;28.820;2022-11-24T08:16:38;26.93;;;9.50;;
42066;SDS011;27734;47.028;28.820;2022-11-24T08:19:09;25.57;;;9.60;;
42066;SDS011;27734;47.028;28.820;2022-11-24T08:21:43;20.40;;;9.18;;
42066;SDS011;27734;47.028;28.820;2022-11-24T08:24:16;24.30;;;9.90;;
42066;SDS011;27734;47.028;28.820;2022-11-24T08:26:48;20.57;;;9.23;;
42066;SDS011;27734;47.028;28.820;2022-11-24T08:29:20;23.37;;;9.47;;
42066;SDS011;27734;47.028;28.820;2022-11-24T08:31:52;16.90;;;7.75;;
42066;SDS011;27734;47.028;28.820;2022-11-24T08:34:24;17.70;;;8.17;;
42066;SDS011;27734;47.028;28.820;2022-11-24T08:36:57;17.57;;;8.03;;
42066;SDS011;27734;47.028;28.820;2022-11-24T08:39:28;18.40;;;8.97;;
42066;SDS011;27734;47.028;28.820;2022-11-24T08:42:00;17.80;;;8.00;;
42066;SDS011;27734;47.028;28.820;2022-11-24T08:44:37;16.23;;;7.43;;
42066;SDS011;27734;47.028;28.820;2022-11-24T08:47:08;17.60;;;8.27;;
42066;SDS011;27734;47.028;28.820;2022-11-24T08:49:40;16.07;;;7.67;;
42066;SDS011;27734;47.028;28.820;2022-11-24T08:52:12;16.37;;;7.83;;
42066;SDS011;27734;47.028;28.820;2022-11-24T08:54:44;19.47;;;8.53;;
42066;SDS011;27734;47.028;28.820;2022-11-24T08:57:16;18.97;;;8.67;;
42066;SDS011;27734;47.028;28.820;2022-11-24T08:59:47;17.63;;;8.77;;
42066;SDS011;27734;47.028;28.820;2022-11-24T09:05:01;21.83;;;9.83;;
42066;SDS011;27734;47.028;28.820;2022-11-24T09:07:34;27.00;;;11.23;;
42066;SDS011;27734;47.028;28.820;2022-11-24T09:10:15;28.40;;;12.60;;
42066;SDS011;27734;47.028;28.820;2022-11-24T09:12:47;31.03;;;13.60;;
42066;SDS011;27734;47.028;28.820;2022-11-24T09:15:19;23.80;;;11.20;;
42066;SDS011;27734;47.028;28.820;2022-11-24T09:17:54;22.23;;;10.07;;
42066;SDS011;27734;47.028;28.820;2022-11-24T09:20:26;21.93;;;10.57;;
42066;SDS011;27734;47.028;28.820;2022-11-24T09:23:01;16.23;;;7.70;;
42066;SDS011;27734;47.028;28.820;2022-11-24T09:25:36;17.27;;;7.97;;
42066;SDS011;27734;47.028;28.820;2022-11-24T09:28:15;19.50;;;7.97;;
42066;SDS011;27734;47.028;28.820;2022-11-24T09:31:05;16.27;;;7.03;;
42066;SDS011;27734;47.028;28.820;2022-11-24T09:33:40;15.53;;;7.23;;
42066;SDS011;27734;47.028;28.820;2022-11-24T09:36:17;16.10;;;7.20;;
42066;SDS011;27734;47.028;28.820;2022-11-24T09:38:56;21.77;;;7.57;;
42066;SDS011;27734;47.028;28.820;2022-11-24T09:42:01;15.57;;;7.17;;
42066;SDS011;27734;47.028;28.820;2022-11-24T09:47:55;20.43;;;7.53;;
42066;SDS011;27734;47.028;28.820;2022-11-24T09:50:34;19.40;;;8.83;;
42066;SDS011;27734;47.028;28.820;2022-11-24T09:53:38;20.63;;;8.10;;
42066;SDS011;27734;47.028;28.820;2022-11-24T09:56:19;16.80;;;7.83;;
42066;SDS011;27734;47.028;28.820;2022-11-24T10:01:48;17.37;;;7.70;;
42066;SDS011;27734;47.028;28.820;2022-11-24T10:04:21;14.77;;;7.20;;
42066;SDS011;27734;47.028;28.820;2022-11-24T10:07:00;17.13;;;7.67;;
42066;SDS011;27734;47.028;28.820;2022-11-24T10:09:46;16.47;;;7.57;;
42066;SDS011;27734;47.028;28.820;2022-11-24T10:12:35;17.33;;;7.47;;
42066;SDS011;27734;47.028;28.820;2022-11-24T10:15:24;21.53;;;8.47;;
42066;SDS011;27734;47.028;28.820;2022-11-24T10:21:21;18.00;;;7.53;;
42066;SDS011;27734;47.028;28.820;2022-11-24T10:24:07;17.30;;;7.77;;
42066;SDS011;27734;47.028;28.820;2022-11-24T10:26:55;17.70;;;7.40;;
42066;SDS011;27734;47.028;28.820;2022-11-24T10:29:39;13.47;;;6.43;;
42066;SDS011;27734;47.028;28.820;2022-11-24T10:32:17;14.33;;;6.33;;
42066;SDS011;27734;47.028;28.820;2022-11-24T10:34:51;13.07;;;6.30;;
42066;SDS011;27734;47.028;28.820;2022-11-24T10:37:34;17.03;;;6.97;;
42066;SDS011;27734;47.028;28.820;2022-11-24T10:40:21;17.70;;;7.57;;
42066;SDS011;27734;47.028;28.820;2022-11-24T10:43:01;17.40;;;7.43;;
42066;SDS011;27734;47.028;28.820;2022-11-24T10:45:40;17.70;;;7.60;;
42066;SDS011;27734;47.028;28.820;2022-11-24T10:48:15;17.27;;;7.17;;
42066;SDS011;27734;47.028;28.820;2022-11-24T10:50:52;15.60;;;6.97;;
42066;SDS011;27734;47.028;28.820;2022-11-24T10:53:33;18.53;;;7.17;;
42066;SDS011;27734;47.028;28.820;2022-11-24T10:56:21;17.40;;;6.62;;
42066;SDS011;27734;47.028;28.820;2022-11-24T10:59:14;19.40;;;7.77;;
42066;SDS011;27734;47.028;28.820;2022-11-24T11:02:29;21.37;;;8.90;;
42066;SDS011;27734;47.028;28.820;2022-11-24T11:05:25;20.00;;;8.83;;
42066;SDS011;27734;47.028;28.820;2022-11-24T11:08:18;18.03;;;7.87;;
42066;SDS011;27734;47.028;28.820;2022-11-24T11:14:01;20.27;;;9.47;;
42066;SDS011;27734;47.028;28.820;2022-11-24T11:16:35;19.87;;;8.27;;
42066;SDS011;27734;47.028;28.820;2022-11-24T11:19:30;19.37;;;8.70;;
42066;SDS011;27734;47.028;28.820;2022-11-24T11:22:05;20.20;;;8.53;;
42066;SDS011;27734;47.028;28.820;2022-11-24T11:25:04;20.87;;;8.73;;
42066;SDS011;27734;47.028;28.820;2022-11-24T11:27:49;20.07;;;8.47;;
42066;SDS011;27734;47.028;28.820;2022-11-24T11:30:40;21.60;;;8.73;;
42066;SDS011;27734;47.028;28.820;2022-11-24T11:33:30;19.40;;;8.53;;
42066;SDS011;27734;47.028;28.820;2022-11-24T11:36:08;22.63;;;9.87;;
42066;SDS011;27734;47.028;28.820;2022-11-24T11:38:53;19.37;;;9.10;;
42066;SDS011;27734;47.028;28.820;2022-11-24T11:41:26;19.00;;;8.87;;
42066;SDS011;27734;47.028;28.820;2022-11-24T11:44:07;21.67;;;8.97;;
42066;SDS011;27734;47.028;28.820;2022-11-24T11:46:47;17.03;;;7.27;;
42066;SDS011;27734;47.028;28.820;2022-11-24T11:49:22;18.27;;;7.53;;
42066;SDS011;27734;47.028;28.820;2022-11-24T11:51:59;16.70;;;7.33;;
42066;SDS011;27734;47.028;28.820;2022-11-24T11:54:47;16.65;;;7.12;;
42066;SDS011;27734;47.028;28.820;2022-11-24T12:00:14;13.30;;;6.70;;
42066;SDS011;27734;47.028;28.820;2022-11-24T12:03:15;11.37;;;5.63;;
42066;SDS011;27734;47.028;28.820;2022-11-24T12:06:12;13.13;;;5.60;;
42066;SDS011;27734;47.028;28.820;2022-11-24T12:08:59;13.47;;;6.50;;
42066;SDS011;27734;47.028;28.820;2022-11-24T12:12:08;16.23;;;6.67;;
42066;SDS011;27734;47.028;28.820;2022-11-24T12:14:58;15.00;;;6.57;;
42066;SDS011;27734;47.028;28.820;2022-11-24T12:17:42;17.90;;;7.07;;
42066;SDS011;27734;47.028;28.820;2022-11-24T12:20:30;18.60;;;7.50;;
42066;SDS011;27734;47.028;28.820;2022-11-24T12:23:17;16.60;;;6.90;;
42066;SDS011;27734;47.028;28.820;2022-11-24T12:26:06;15.80;;;6.95;;
42066;SDS011;27734;47.028;28.820;2022-11-24T12:28:45;17.77;;;7.37;;
42066;SDS011;27734;47.028;28.820;2022-11-24T12:31:32;16.10;;;6.35;;
42066;SDS011;27734;47.028;28.820;2022-11-24T12:34:28;13.67;;;5.83;;
42066;SDS011;27734;47.028;28.820;2022-11-24T12:37:20;13.93;;;6.23;;
42066;SDS011;27734;47.028;28.820;2022-11-24T12:40:16;14.40;;;6.40;;
42066;SDS011;27734;47.028;28.820;2022-11-24T12:43:05;13.07;;;6.10;;
42066;SDS011;27734;47.028;28.820;2022-11-24T12:45:56;15.57;;;6.60;;
42066;SDS011;27734;47.028;28.820;2022-11-24T12:48:37;14.50;;;6.50;;
42066;SDS011;27734;47.028;28.820;2022-11-24T12:51:26;14.10;;;6.60;;
42066;SDS011;27734;47.028;28.820;2022-11-24T12:54:09;16.93;;;6.53;;
42066;SDS011;27734;47.028;28.820;2022-11-24T12:56:48;13.57;;;6.07;;
42066;SDS011;27734;47.028;28.820;2022-11-24T12:59:26;12.67;;;5.87;;
42066;SDS011;27734;47.028;28.820;2022-11-24T13:02:03;14.30;;;6.43;;
42066;SDS011;27734;47.028;28.820;2022-11-24T13:04:53;13.60;;;5.70;;
42066;SDS011;27734;47.028;28.820;2022-11-24T13:07:37;13.40;;;6.03;;
42066;SDS011;27734;47.028;28.820;2022-11-24T13:10:33;13.53;;;6.47;;
42066;SDS011;27734;47.028;28.820;2022-11-24T13:13:08;13.63;;;6.90;;
42066;SDS011;27734;47.028;28.820;2022-11-24T13:16:10;15.50;;;6.70;;
42066;SDS011;27734;47.028;28.820;2022-11-24T13:18:52;16.37;;;7.60;;
42066;SDS011;27734;47.028;28.820;2022-11-24T13:21:48;16.47;;;7.10;;
42066;SDS011;27734;47.028;28.820;2022-11-24T13:24:32;14.40;;;6.97;;
42066;SDS011;27734;47.028;28.820;2022-11-24T13:27:26;14.83;;;6.83;;
42066;SDS011;27734;47.028;28.820;2022-11-24T13:33:37;14.63;;;6.87;;
42066;SDS011;27734;47.028;28.820;2022-11-24T13:39:22;15.15;;;7.10;;
42066;SDS011;27734;47.028;28.820;2022-11-24T13:42:20;14.83;;;7.17;;
42066;SDS011;27734;47.028;28.820;2022-11-24T13:44:53;14.30;;;6.90;;
42066;SDS011;27734;47.028;28.820;2022-11-24T13:50:20;17.87;;;8.23;;
42066;SDS011;27734;47.028;28.820;2022-11-24T13:53:17;19.90;;;8.50;;
42066;SDS011;27734;47.028;28.820;2022-11-24T13:56:04;18.53;;;8.53;;
42066;SDS011;27734;47.028;28.820;2022-11-24T13:58:53;19.03;;;8.43;;
42066;SDS011;27734;47.028;28.820;2022-11-24T14:01:29;18.70;;;7.83;;
42066;SDS011;27734;47.028;28.820;2022-11-24T14:04:19;17.73;;;8.77;;
42066;SDS011;27734;47.028;28.820;2022-11-24T14:07:03;16.77;;;7.23;;
42066;SDS011;27734;47.028;28.820;2022-11-24T14:09:43;13.73;;;6.63;;
42066;SDS011;27734;47.028;28.820;2022-11-24T14:12:25;16.90;;;7.80;;
42066;SDS011;27734;47.028;28.820;2022-11-24T14:15:18;14.53;;;6.67;;
42066;SDS011;27734;47.028;28.820;2022-11-24T14:17:56;14.90;;;7.13;;
42066;SDS011;27734;47.028;28.820;2022-11-24T14:20:28;15.10;;;6.43;;
42066;SDS011;27734;47.028;28.820;2022-11-24T14:23:02;13.13;;;6.43;;
42066;SDS011;27734;47.028;28.820;2022-11-24T14:25:37;16.13;;;7.27;;
42066;SDS011;27734;47.028;28.820;2022-11-24T14:28:16;14.83;;;6.70;;
42066;SDS011;27734;47.028;28.820;2022-11-24T14:31:04;16.33;;;7.30;;
42066;SDS011;27734;47.028;28.820;2022-11-24T14:33:38;18.37;;;7.60;;
42066;SDS011;27734;47.028;28.820;2022-11-24T14:36:12;16.20;;;7.47;;
42066;SDS011;27734;47.028;28.820;2022-11-24T14:39:11;14.50;;;5.93;;
42066;SDS011;27734;47.028;28.820;2022-11-24T14:41:50;11.60;;;5.77;;
42066;SDS011;27734;47.028;28.820;2022-11-24T14:44:32;13.73;;;6.27;;
42066;SDS011;27734;47.028;28.820;2022-11-24T14:47:13;10.10;;;5.13;;
42066;SDS011;27734;47.028;28.820;2022-11-24T14:49:50;13.07;;;6.00;;
42066;SDS011;27734;47.028;28.820;2022-11-24T14:52:23;11.63;;;5.90;;
42066;SDS011;27734;47.028;28.820;2022-11-24T14:54:55;12.40;;;5.23;;
42066;SDS011;27734;47.028;28.820;2022-11-24T14:57:31;12.58;;;6.10;;
42066;SDS011;27734;47.028;28.820;2022-11-24T15:00:14;14.53;;;6.70;;
42066;SDS011;27734;47.028;28.820;2022-11-24T15:03:18;14.40;;;6.27;;
42066;SDS011;27734;47.028;28.820;2022-11-24T15:05:53;17.03;;;6.50;;
42066;SDS011;27734;47.028;28.820;2022-11-24T15:08:32;15.17;;;6.90;;
42066;SDS011;27734;47.028;28.820;2022-11-24T15:11:11;14.67;;;6.87;;
42066;SDS011;27734;47.028;28.820;2022-11-24T15:13:51;16.67;;;7.60;;
42066;SDS011;27734;47.028;28.820;2022-11-24T15:16:26;14.53;;;6.67;;
42066;SDS011;27734;47.028;28.820;2022-11-24T15:19:00;16.20;;;7.20;;
42066;SDS011;27734;47.028;28.820;2022-11-24T15:21:34;15.68;;;7.00;;
42066;SDS011;27734;47.028;28.820;2022-11-24T15:24:15;14.47;;;6.17;;
42066;SDS011;27734;47.028;28.820;2022-11-24T15:26:47;12.03;;;5.53;;
42066;SDS011;27734;47.028;28.820;2022-11-24T15:29:18;15.37;;;6.93;;
42066;SDS011;27734;47.028;28.820;2022-11-24T15:31:50;17.93;;;7.33;;
42066;SDS011;27734;47.028;28.820;2022-11-24T15:34:24;16.12;;;7.25;;
42066;SDS011;27734;47.028;28.820;2022-11-24T15:36:56;15.35;;;7.10;;
42066;SDS011;27734;47.028;28.820;2022-11-24T15:39:30;17.83;;;7.47;;
42066;SDS011;27734;47.028;28.820;2022-11-24T15:42:01;16.97;;;8.13;;